New Millport, Pennsylvania
Current Conditions -  °F | °C
As of 7:54 PM on Saturday 22 Nov 2014 (Local Time) from KFIG Reporting Station
Overcast Overcast  
Wind Chill: 33°   Ceiling: 4500
Heat Index: 33°   Visibility: 7mi
Dew Point: 32°   Wind: 3mph
Humidity: 96%   Direction: 260°W
Pressure: 30.13"   Gusts: NA
Location:  40.89°N, 78.54°W
Report Text: KFIG 230054Z AUTO 26003KT 7SM BKN045 OVC055 01/00 A3013 RMK AO2 RAE17B40E44UPB44E54 SLP225 P0000 T00060000
Loading
Personal Weather Stations






























Interactive Weather Map New forecast layout! Learn more

10-Day Weather Forecast

Advertisements
Track Severe Weather on mobile